sensor_id;sensor_type;location;lat;lon;timestamp;pressure;altitude;pressure_sealevel;temperature;humidity
50011;BME280;35899;50.352;19.390;2024-03-08T00:00:57;98359.06;;;-2.42;100.00
50011;BME280;35899;50.352;19.390;2024-03-08T00:03:43;98359.91;;;-2.43;100.00
50011;BME280;35899;50.352;19.390;2024-03-08T00:06:10;98362.12;;;-2.42;100.00
50011;BME280;35899;50.352;19.390;2024-03-08T00:08:36;98359.08;;;-2.43;100.00
50011;BME280;35899;50.352;19.390;2024-03-08T00:11:03;98360.28;;;-2.45;100.00
50011;BME280;35899;50.352;19.390;2024-03-08T00:13:29;98354.19;;;-2.45;100.00
50011;BME280;35899;50.352;19.390;2024-03-08T00:15:56;98357.26;;;-2.47;100.00
50011;BME280;35899;50.352;19.390;2024-03-08T00:18:23;98358.30;;;-2.49;100.00
50011;BME280;35899;50.352;19.390;2024-03-08T00:20:49;98361.70;;;-2.51;100.00
50011;BME280;35899;50.352;19.390;2024-03-08T00:23:16;98359.52;;;-2.54;100.00
50011;BME280;35899;50.352;19.390;2024-03-08T00:25:43;98356.34;;;-2.57;100.00
50011;BME280;35899;50.352;19.390;2024-03-08T00:28:09;98354.17;;;-2.60;100.00
50011;BME280;35899;50.352;19.390;2024-03-08T00:30:36;98353.35;;;-2.62;100.00
50011;BME280;35899;50.352;19.390;2024-03-08T00:33:02;98355.91;;;-2.63;100.00
50011;BME280;35899;50.352;19.390;2024-03-08T00:35:29;98357.45;;;-2.64;100.00
50011;BME280;35899;50.352;19.390;2024-03-08T00:37:55;98355.76;;;-2.64;100.00
50011;BME280;35899;50.352;19.390;2024-03-08T00:40:22;98356.09;;;-2.65;100.00
50011;BME280;35899;50.352;19.390;2024-03-08T00:42:48;98354.25;;;-2.67;100.00
50011;BME280;35899;50.352;19.390;2024-03-08T00:45:15;98354.27;;;-2.68;100.00
50011;BME280;35899;50.352;19.390;2024-03-08T00:47:42;98350.88;;;-2.69;100.00
50011;BME280;35899;50.352;19.390;2024-03-08T00:50:09;98352.41;;;-2.70;100.00
50011;BME280;35899;50.352;19.390;2024-03-08T00:52:37;98349.20;;;-2.71;100.00
50011;BME280;35899;50.352;19.390;2024-03-08T00:55:04;98343.96;;;-2.71;100.00
50011;BME280;35899;50.352;19.390;2024-03-08T00:57:30;98341.42;;;-2.72;100.00
50011;BME280;35899;50.352;19.390;2024-03-08T00:59:57;98340.08;;;-2.73;100.00
50011;BME280;35899;50.352;19.390;2024-03-08T01:02:23;98340.92;;;-2.73;100.00
50011;BME280;35899;50.352;19.390;2024-03-08T01:04:50;98338.56;;;-2.75;100.00
50011;BME280;35899;50.352;19.390;2024-03-08T01:07:17;98340.09;;;-2.75;100.00
50011;BME280;35899;50.352;19.390;2024-03-08T01:09:43;98337.39;;;-2.76;100.00
50011;BME280;35899;50.352;19.390;2024-03-08T01:12:10;98338.08;;;-2.76;100.00
50011;BME280;35899;50.352;19.390;2024-03-08T01:14:37;98332.15;;;-2.77;100.00
50011;BME280;35899;50.352;19.390;2024-03-08T01:17:03;98331.13;;;-2.77;100.00
50011;BME280;35899;50.352;19.390;2024-03-08T01:19:30;98328.60;;;-2.77;100.00
50011;BME280;35899;50.352;19.390;2024-03-08T01:21:56;98327.58;;;-2.76;100.00
50011;BME280;35899;50.352;19.390;2024-03-08T01:24:23;98326.23;;;-2.76;100.00
50011;BME280;35899;50.352;19.390;2024-03-08T01:26:50;98327.39;;;-2.76;100.00
50011;BME280;35899;50.352;19.390;2024-03-08T01:29:16;98325.20;;;-2.77;100.00
50011;BME280;35899;50.352;19.390;2024-03-08T01:31:43;98322.17;;;-2.78;100.00
50011;BME280;35899;50.352;19.390;2024-03-08T01:34:10;98320.45;;;-2.75;100.00
50011;BME280;35899;50.352;19.390;2024-03-08T01:36:36;98318.88;;;-2.70;100.00
50011;BME280;35899;50.352;19.390;2024-03-08T01:39:03;98314.59;;;-2.66;100.00
50011;BME280;35899;50.352;19.390;2024-03-08T01:41:29;98311.31;;;-2.61;100.00
50011;BME280;35899;50.352;19.390;2024-03-08T01:43:56;98308.73;;;-2.57;100.00
50011;BME280;35899;50.352;19.390;2024-03-08T01:46:23;98304.98;;;-2.54;100.00
50011;BME280;35899;50.352;19.390;2024-03-08T01:48:50;98307.14;;;-2.52;100.00
50011;BME280;35899;50.352;19.390;2024-03-08T01:51:16;98306.11;;;-2.49;100.00
50011;BME280;35899;50.352;19.390;2024-03-08T01:53:46;98305.05;;;-2.47;100.00
50011;BME280;35899;50.352;19.390;2024-03-08T01:56:13;98298.91;;;-2.44;100.00
50011;BME280;35899;50.352;19.390;2024-03-08T01:58:43;98297.54;;;-2.40;100.00
50011;BME280;35899;50.352;19.390;2024-03-08T02:01:12;98298.49;;;-2.37;100.00
50011;BME280;35899;50.352;19.390;2024-03-08T02:03:38;98297.07;;;-2.31;100.00
50011;BME280;35899;50.352;19.390;2024-03-08T02:06:05;98290.58;;;-2.27;100.00
50011;BME280;35899;50.352;19.390;2024-03-08T02:08:32;98288.84;;;-2.23;100.00
50011;BME280;35899;50.352;19.390;2024-03-08T02:10:58;98287.59;;;-2.19;100.00
50011;BME280;35899;50.352;19.390;2024-03-08T02:13:25;98287.73;;;-2.17;100.00
50011;BME280;35899;50.352;19.390;2024-03-08T02:15:59;98285.14;;;-2.13;100.00
50011;BME280;35899;50.352;19.390;2024-03-08T02:18:27;98285.44;;;-2.10;100.00
50011;BME280;35899;50.352;19.390;2024-03-08T02:20:59;98283.19;;;-2.07;100.00
50011;BME280;35899;50.352;19.390;2024-03-08T02:23:26;98283.62;;;-2.01;100.00
50011;BME280;35899;50.352;19.390;2024-03-08T02:25:54;98281.88;;;-1.97;100.00
50011;BME280;35899;50.352;19.390;2024-03-08T02:28:23;98280.83;;;-1.94;100.00
50011;BME280;35899;50.352;19.390;2024-03-08T02:30:50;98278.39;;;-1.90;100.00
50011;BME280;35899;50.352;19.390;2024-03-08T02:33:18;98274.08;;;-1.86;100.00
50011;BME280;35899;50.352;19.390;2024-03-08T02:35:45;98270.61;;;-1.81;100.00
50011;BME280;35899;50.352;19.390;2024-03-08T02:38:14;98272.25;;;-1.77;100.00
50011;BME280;35899;50.352;19.390;2024-03-08T02:40:49;98271.48;;;-1.71;100.00
50011;BME280;35899;50.352;19.390;2024-03-08T02:43:17;98271.94;;;-1.67;100.00
50011;BME280;35899;50.352;19.390;2024-03-08T02:45:44;98276.64;;;-1.64;100.00
50011;BME280;35899;50.352;19.390;2024-03-08T02:48:11;98276.59;;;-1.61;100.00
50011;BME280;35899;50.352;19.390;2024-03-08T02:50:38;98280.06;;;-1.55;100.00
50011;BME280;35899;50.352;19.390;2024-03-08T02:53:05;98280.39;;;-1.55;100.00
50011;BME280;35899;50.352;19.390;2024-03-08T02:55:32;98282.40;;;-1.53;100.00
50011;BME280;35899;50.352;19.390;2024-03-08T02:57:59;98282.69;;;-1.49;100.00
50011;BME280;35899;50.352;19.390;2024-03-08T03:00:25;98282.30;;;-1.47;100.00
50011;BME280;35899;50.352;19.390;2024-03-08T03:02:52;98279.89;;;-1.45;100.00
50011;BME280;35899;50.352;19.390;2024-03-08T03:05:20;98286.31;;;-1.43;100.00
50011;BME280;35899;50.352;19.390;2024-03-08T03:07:46;98281.73;;;-1.42;100.00
50011;BME280;35899;50.352;19.390;2024-03-08T03:10:13;98285.43;;;-1.41;100.00
50011;BME280;35899;50.352;19.390;2024-03-08T03:12:39;98284.54;;;-1.39;100.00
50011;BME280;35899;50.352;19.390;2024-03-08T03:15:06;98284.19;;;-1.37;100.00
50011;BME280;35899;50.352;19.390;2024-03-08T03:17:32;98282.13;;;-1.36;100.00
50011;BME280;35899;50.352;19.390;2024-03-08T03:19:59;98282.58;;;-1.33;100.00
50011;BME280;35899;50.352;19.390;2024-03-08T03:22:26;98281.53;;;-1.31;100.00
50011;BME280;35899;50.352;19.390;2024-03-08T03:24:52;98284.19;;;-1.28;100.00
50011;BME280;35899;50.352;19.390;2024-03-08T03:27:19;98286.52;;;-1.25;100.00
50011;BME280;35899;50.352;19.390;2024-03-08T03:29:46;98286.79;;;-1.21;100.00
50011;BME280;35899;50.352;19.390;2024-03-08T03:32:13;98282.31;;;-1.18;100.00
50011;BME280;35899;50.352;19.390;2024-03-08T03:34:40;98283.31;;;-1.15;100.00
50011;BME280;35899;50.352;19.390;2024-03-08T03:37:07;98283.62;;;-1.13;100.00
50011;BME280;35899;50.352;19.390;2024-03-08T03:39:34;98280.34;;;-1.11;100.00
50011;BME280;35899;50.352;19.390;2024-03-08T03:42:00;98284.08;;;-1.10;100.00
50011;BME280;35899;50.352;19.390;2024-03-08T03:44:28;98280.31;;;-1.09;100.00
50011;BME280;35899;50.352;19.390;2024-03-08T03:46:55;98283.19;;;-1.09;100.00
50011;BME280;35899;50.352;19.390;2024-03-08T03:49:21;98281.83;;;-1.09;100.00
50011;BME280;35899;50.352;19.390;2024-03-08T03:51:48;98277.41;;;-1.08;100.00
50011;BME280;35899;50.352;19.390;2024-03-08T03:54:14;98272.66;;;-1.09;100.00
50011;BME280;35899;50.352;19.390;2024-03-08T03:56:41;98271.80;;;-1.08;100.00
50011;BME280;35899;50.352;19.390;2024-03-08T03:59:07;98274.52;;;-1.08;100.00
50011;BME280;35899;50.352;19.390;2024-03-08T04:01:34;98273.64;;;-1.07;100.00
50011;BME280;35899;50.352;19.390;2024-03-08T04:04:05;98267.50;;;-1.05;100.00
50011;BME280;35899;50.352;19.390;2024-03-08T04:06:32;98268.14;;;-1.03;100.00
50011;BME280;35899;50.352;19.390;2024-03-08T04:08:58;98266.44;;;-1.02;100.00
50011;BME280;35899;50.352;19.390;2024-03-08T04:11:25;98263.16;;;-1.01;100.00
50011;BME280;35899;50.352;19.390;2024-03-08T04:13:51;98257.88;;;-0.99;100.00
50011;BME280;35899;50.352;19.390;2024-03-08T04:16:18;98254.64;;;-0.99;100.00
50011;BME280;35899;50.352;19.390;2024-03-08T04:18:44;98250.23;;;-0.99;100.00
50011;BME280;35899;50.352;19.390;2024-03-08T04:21:11;98251.75;;;-0.98;100.00
50011;BME280;35899;50.352;19.390;2024-03-08T04:23:38;98252.41;;;-0.97;100.00
50011;BME280;35899;50.352;19.390;2024-03-08T04:26:04;98254.42;;;-0.96;100.00
50011;BME280;35899;50.352;19.390;2024-03-08T04:28:32;98254.05;;;-0.95;100.00
50011;BME280;35899;50.352;19.390;2024-03-08T04:30:58;98253.05;;;-0.95;100.00
50011;BME280;35899;50.352;19.390;2024-03-08T04:33:25;98255.77;;;-0.94;100.00
50011;BME280;35899;50.352;19.390;2024-03-08T04:35:52;98255.73;;;-0.93;100.00
50011;BME280;35899;50.352;19.390;2024-03-08T04:38:18;98259.45;;;-0.92;100.00
50011;BME280;35899;50.352;19.390;2024-03-08T04:40:45;98262.19;;;-0.93;100.00
50011;BME280;35899;50.352;19.390;2024-03-08T04:43:11;98258.62;;;-0.93;100.00
50011;BME280;35899;50.352;19.390;2024-03-08T04:45:38;98261.00;;;-0.93;100.00
50011;BME280;35899;50.352;19.390;2024-03-08T04:48:05;98262.04;;;-0.94;100.00
50011;BME280;35899;50.352;19.390;2024-03-08T04:50:31;98264.08;;;-0.94;100.00
50011;BME280;35899;50.352;19.390;2024-03-08T04:52:58;98266.77;;;-0.93;100.00
50011;BME280;35899;50.352;19.390;2024-03-08T04:55:24;98264.89;;;-0.92;100.00
50011;BME280;35899;50.352;19.390;2024-03-08T04:57:51;98264.38;;;-0.92;100.00
50011;BME280;35899;50.352;19.390;2024-03-08T05:00:17;98265.92;;;-0.94;100.00
50011;BME280;35899;50.352;19.390;2024-03-08T05:02:44;98265.44;;;-0.94;100.00
50011;BME280;35899;50.352;19.390;2024-03-08T05:05:11;98268.84;;;-0.95;100.00
50011;BME280;35899;50.352;19.390;2024-03-08T05:07:41;98265.92;;;-0.94;100.00
50011;BME280;35899;50.352;19.390;2024-03-08T05:10:07;98270.34;;;-0.93;100.00
50011;BME280;35899;50.352;19.390;2024-03-08T05:12:34;98267.46;;;-0.94;100.00
50011;BME280;35899;50.352;19.390;2024-03-08T05:15:00;98267.11;;;-0.94;100.00
50011;BME280;35899;50.352;19.390;2024-03-08T05:17:27;98262.70;;;-0.94;100.00
50011;BME280;35899;50.352;19.390;2024-03-08T05:19:54;98260.52;;;-0.95;100.00
50011;BME280;35899;50.352;19.390;2024-03-08T05:22:20;98264.11;;;-0.96;100.00
50011;BME280;35899;50.352;19.390;2024-03-08T05:24:47;98267.83;;;-0.96;100.00
50011;BME280;35899;50.352;19.390;2024-03-08T05:27:13;98270.05;;;-0.96;100.00
50011;BME280;35899;50.352;19.390;2024-03-08T05:29:40;98270.38;;;-0.96;100.00
50011;BME280;35899;50.352;19.390;2024-03-08T05:32:07;98265.98;;;-0.97;100.00
50011;BME280;35899;50.352;19.390;2024-03-08T05:34:33;98265.98;;;-0.95;100.00
50011;BME280;35899;50.352;19.390;2024-03-08T05:37:01;98264.43;;;-0.94;100.00
50011;BME280;35899;50.352;19.390;2024-03-08T05:39:28;98266.10;;;-0.94;100.00
50011;BME280;35899;50.352;19.390;2024-03-08T05:41:55;98268.62;;;-0.92;100.00
50011;BME280;35899;50.352;19.390;2024-03-08T05:44:22;98264.17;;;-0.91;100.00
50011;BME280;35899;50.352;19.390;2024-03-08T05:46:48;98265.85;;;-0.89;100.00
50011;BME280;35899;50.352;19.390;2024-03-08T05:49:15;98266.84;;;-0.88;100.00
50011;BME280;35899;50.352;19.390;2024-03-08T05:51:42;98266.34;;;-0.89;100.00
50011;BME280;35899;50.352;19.390;2024-03-08T05:54:12;98271.27;;;-0.88;100.00
50011;BME280;35899;50.352;19.390;2024-03-08T05:56:43;98270.41;;;-0.88;100.00
50011;BME280;35899;50.352;19.390;2024-03-08T05:59:10;98275.15;;;-0.87;100.00
50011;BME280;35899;50.352;19.390;2024-03-08T06:01:37;98272.75;;;-0.87;100.00
50011;BME280;35899;50.352;19.390;2024-03-08T06:04:04;98272.57;;;-0.85;100.00
50011;BME280;35899;50.352;19.390;2024-03-08T06:06:31;98272.00;;;-0.83;100.00
50011;BME280;35899;50.352;19.390;2024-03-08T06:08:58;98275.69;;;-0.79;100.00
50011;BME280;35899;50.352;19.390;2024-03-08T06:11:25;98279.53;;;-0.76;100.00
50011;BME280;35899;50.352;19.390;2024-03-08T06:13:52;98282.19;;;-0.72;100.00
50011;BME280;35899;50.352;19.390;2024-03-08T06:16:19;98281.80;;;-0.70;100.00
50011;BME280;35899;50.352;19.390;2024-03-08T06:18:45;98278.16;;;-0.67;100.00
50011;BME280;35899;50.352;19.390;2024-03-08T06:21:12;98278.46;;;-0.64;100.00
50011;BME280;35899;50.352;19.390;2024-03-08T06:23:39;98278.47;;;-0.64;100.00
50011;BME280;35899;50.352;19.390;2024-03-08T06:26:07;98278.60;;;-0.62;100.00
50011;BME280;35899;50.352;19.390;2024-03-08T06:28:34;98274.47;;;-0.59;100.00
50011;BME280;35899;50.352;19.390;2024-03-08T06:31:01;98275.39;;;-0.55;100.00
50011;BME280;35899;50.352;19.390;2024-03-08T06:33:29;98275.66;;;-0.52;100.00
50011;BME280;35899;50.352;19.390;2024-03-08T06:35:56;98269.45;;;-0.47;100.00
50011;BME280;35899;50.352;19.390;2024-03-08T06:38:24;98273.59;;;-0.41;100.00
50011;BME280;35899;50.352;19.390;2024-03-08T06:40:51;98274.16;;;-0.36;100.00
50011;BME280;35899;50.352;19.390;2024-03-08T06:43:18;98276.32;;;-0.32;100.00
50011;BME280;35899;50.352;19.390;2024-03-08T06:45:45;98273.34;;;-0.29;100.00
50011;BME280;35899;50.352;19.390;2024-03-08T06:48:12;98272.54;;;-0.24;100.00
50011;BME280;35899;50.352;19.390;2024-03-08T06:50:39;98269.52;;;-0.17;100.00
50011;BME280;35899;50.352;19.390;2024-03-08T06:53:05;98270.04;;;-0.10;100.00
50011;BME280;35899;50.352;19.390;2024-03-08T06:55:32;98273.96;;;-0.03;100.00
50011;BME280;35899;50.352;19.390;2024-03-08T06:57:59;98270.41;;;0.04;100.00
50011;BME280;35899;50.352;19.390;2024-03-08T07:00:25;98274.17;;;0.11;100.00
50011;BME280;35899;50.352;19.390;2024-03-08T07:02:52;98268.86;;;0.20;100.00
50011;BME280;35899;50.352;19.390;2024-03-08T07:05:19;98270.63;;;0.25;100.00
50011;BME280;35899;50.352;19.390;2024-03-08T07:07:46;98270.32;;;0.30;100.00
50011;BME280;35899;50.352;19.390;2024-03-08T07:10:12;98264.95;;;0.35;100.00
50011;BME280;35899;50.352;19.390;2024-03-08T07:12:39;98261.19;;;0.42;100.00
50011;BME280;35899;50.352;19.390;2024-03-08T07:15:06;98266.02;;;0.54;100.00
50011;BME280;35899;50.352;19.390;2024-03-08T07:17:34;98266.79;;;0.71;100.00
50011;BME280;35899;50.352;19.390;2024-03-08T07:20:01;98271.80;;;0.89;100.00
50011;BME280;35899;50.352;19.390;2024-03-08T07:22:27;98271.94;;;1.03;100.00
50011;BME280;35899;50.352;19.390;2024-03-08T07:24:54;98273.91;;;1.19;100.00
50011;BME280;35899;50.352;19.390;2024-03-08T07:27:20;98276.02;;;1.35;100.00
50011;BME280;35899;50.352;19.390;2024-03-08T07:29:47;98280.16;;;1.52;100.00
50011;BME280;35899;50.352;19.390;2024-03-08T07:32:13;98282.39;;;1.58;100.00
50011;BME280;35899;50.352;19.390;2024-03-08T07:34:40;98280.90;;;1.57;100.00
50011;BME280;35899;50.352;19.390;2024-03-08T07:37:07;98281.82;;;1.54;100.00
50011;BME280;35899;50.352;19.390;2024-03-08T07:39:34;98282.14;;;1.48;100.00
50011;BME280;35899;50.352;19.390;2024-03-08T07:42:01;98287.98;;;1.47;100.00
50011;BME280;35899;50.352;19.390;2024-03-08T07:44:28;98290.04;;;1.47;100.00
50011;BME280;35899;50.352;19.390;2024-03-08T07:46:54;98293.91;;;1.42;100.00
50011;BME280;35899;50.352;19.390;2024-03-08T07:49:24;98294.82;;;1.46;100.00
50011;BME280;35899;50.352;19.390;2024-03-08T07:51:51;98295.20;;;1.51;100.00
50011;BME280;35899;50.352;19.390;2024-03-08T07:54:18;98296.58;;;1.51;100.00
50011;BME280;35899;50.352;19.390;2024-03-08T07:56:45;98292.76;;;1.47;100.00
50011;BME280;35899;50.352;19.390;2024-03-08T07:59:12;98290.23;;;1.59;100.00
50011;BME280;35899;50.352;19.390;2024-03-08T08:01:38;98289.09;;;1.80;100.00
50011;BME280;35899;50.352;19.390;2024-03-08T08:04:05;98284.81;;;1.92;100.00
50011;BME280;35899;50.352;19.390;2024-03-08T08:06:31;98280.39;;;2.04;100.00
50011;BME280;35899;50.352;19.390;2024-03-08T08:08:59;98280.35;;;2.10;100.00
50011;BME280;35899;50.352;19.390;2024-03-08T08:11:27;98279.45;;;2.23;100.00
50011;BME280;35899;50.352;19.390;2024-03-08T08:13:53;98279.40;;;2.30;100.00
50011;BME280;35899;50.352;19.390;2024-03-08T08:16:22;98278.73;;;2.47;100.00
50011;BME280;35899;50.352;19.390;2024-03-08T08:18:49;98276.39;;;2.61;100.00
50011;BME280;35899;50.352;19.390;2024-03-08T08:21:15;98274.08;;;2.74;100.00
50011;BME280;35899;50.352;19.390;2024-03-08T08:23:42;98268.33;;;2.98;100.00
50011;BME280;35899;50.352;19.390;2024-03-08T08:26:10;98271.91;;;3.13;100.00
50011;BME280;35899;50.352;19.390;2024-03-08T08:28:37;98272.73;;;3.14;100.00
50011;BME280;35899;50.352;19.390;2024-03-08T08:31:03;98270.34;;;3.09;100.00
50011;BME280;35899;50.352;19.390;2024-03-08T08:33:30;98270.33;;;3.09;100.00
50011;BME280;35899;50.352;19.390;2024-03-08T08:35:56;98270.41;;;3.12;100.00
50011;BME280;35899;50.352;19.390;2024-03-08T08:38:23;98267.75;;;3.10;100.00
50011;BME280;35899;50.352;19.390;2024-03-08T08:40:50;98271.10;;;3.06;99.94
50011;BME280;35899;50.352;19.390;2024-03-08T08:43:16;98266.70;;;3.05;99.94
50011;BME280;35899;50.352;19.390;2024-03-08T08:45:43;98268.48;;;3.03;99.99
50011;BME280;35899;50.352;19.390;2024-03-08T08:48:10;98270.45;;;3.01;99.82
50011;BME280;35899;50.352;19.390;2024-03-08T08:50:36;98269.05;;;2.97;99.13
50011;BME280;35899;50.352;19.390;2024-03-08T08:53:03;98270.59;;;2.97;99.33
50011;BME280;35899;50.352;19.390;2024-03-08T08:55:30;98270.96;;;3.01;99.75
50011;BME280;35899;50.352;19.390;2024-03-08T08:57:56;98268.92;;;3.10;99.98
50011;BME280;35899;50.352;19.390;2024-03-08T09:00:24;98269.89;;;3.18;99.71
50011;BME280;35899;50.352;19.390;2024-03-08T09:02:50;98270.17;;;3.19;98.88
50011;BME280;35899;50.352;19.390;2024-03-08T09:05:17;98269.73;;;3.22;98.60
50011;BME280;35899;50.352;19.390;2024-03-08T09:07:44;98261.45;;;3.24;98.29
50011;BME280;35899;50.352;19.390;2024-03-08T09:10:10;98259.73;;;3.29;98.48
50011;BME280;35899;50.352;19.390;2024-03-08T09:12:40;98258.63;;;3.36;98.27
50011;BME280;35899;50.352;19.390;2024-03-08T09:15:08;98258.11;;;3.41;97.85
50011;BME280;35899;50.352;19.390;2024-03-08T09:17:37;98257.16;;;3.44;97.57
50011;BME280;35899;50.352;19.390;2024-03-08T09:20:05;98256.13;;;3.48;97.62
50011;BME280;35899;50.352;19.390;2024-03-08T09:22:32;98253.55;;;3.59;97.41
50011;BME280;35899;50.352;19.390;2024-03-08T09:24:59;98251.61;;;3.64;97.10
50011;BME280;35899;50.352;19.390;2024-03-08T09:27:25;98250.00;;;3.76;97.75
50011;BME280;35899;50.352;19.390;2024-03-08T09:29:52;98245.23;;;3.84;97.49
50011;BME280;35899;50.352;19.390;2024-03-08T09:32:19;98248.70;;;3.92;97.00
50011;BME280;35899;50.352;19.390;2024-03-08T09:34:46;98243.23;;;3.96;96.50
50011;BME280;35899;50.352;19.390;2024-03-08T09:37:12;98241.29;;;4.02;96.39
50011;BME280;35899;50.352;19.390;2024-03-08T09:39:39;98241.00;;;4.09;95.88
50011;BME280;35899;50.352;19.390;2024-03-08T09:42:05;98242.13;;;4.21;95.53
50011;BME280;35899;50.352;19.390;2024-03-08T09:44:33;98241.67;;;4.49;95.04
50011;BME280;35899;50.352;19.390;2024-03-08T09:47:00;98243.67;;;4.88;94.49
50011;BME280;35899;50.352;19.390;2024-03-08T09:49:27;98239.17;;;5.25;93.24
50011;BME280;35899;50.352;19.390;2024-03-08T09:51:54;98234.80;;;5.66;92.31
50011;BME280;35899;50.352;19.390;2024-03-08T09:54:21;98237.21;;;6.03;91.11
50011;BME280;35899;50.352;19.390;2024-03-08T09:56:51;98235.02;;;6.47;90.75
50011;BME280;35899;50.352;19.390;2024-03-08T09:59:18;98230.86;;;6.89;89.12
50011;BME280;35899;50.352;19.390;2024-03-08T10:01:45;98233.12;;;7.26;87.97
50011;BME280;35899;50.352;19.390;2024-03-08T10:04:12;98223.77;;;7.66;87.31
50011;BME280;35899;50.352;19.390;2024-03-08T10:06:39;98220.39;;;8.00;85.55
50011;BME280;35899;50.352;19.390;2024-03-08T10:09:06;98220.81;;;8.36;84.39
50011;BME280;35899;50.352;19.390;2024-03-08T10:11:32;98216.00;;;8.73;83.14
50011;BME280;35899;50.352;19.390;2024-03-08T10:13:59;98214.64;;;9.08;82.22
50011;BME280;35899;50.352;19.390;2024-03-08T10:16:29;98213.34;;;9.41;80.77
50011;BME280;35899;50.352;19.390;2024-03-08T10:18:56;98215.91;;;9.69;79.09
50011;BME280;35899;50.352;19.390;2024-03-08T10:21:23;98215.27;;;9.96;77.77
50011;BME280;35899;50.352;19.390;2024-03-08T10:23:50;98218.91;;;10.23;76.44
50011;BME280;35899;50.352;19.390;2024-03-08T10:26:18;98218.05;;;10.40;74.16
50011;BME280;35899;50.352;19.390;2024-03-08T10:28:46;98210.29;;;10.66;74.01
50011;BME280;35899;50.352;19.390;2024-03-08T10:31:16;98216.20;;;10.97;73.55
50011;BME280;35899;50.352;19.390;2024-03-08T10:33:46;98210.95;;;11.26;71.72
50011;BME280;35899;50.352;19.390;2024-03-08T10:36:14;98212.74;;;11.45;71.11
50011;BME280;35899;50.352;19.390;2024-03-08T10:38:43;98209.01;;;11.75;70.62
50011;BME280;35899;50.352;19.390;2024-03-08T10:41:10;98207.41;;;12.07;69.27
50011;BME280;35899;50.352;19.390;2024-03-08T10:46:45;98206.52;;;12.69;67.71
50011;BME280;35899;50.352;19.390;2024-03-08T10:49:25;98205.39;;;13.19;66.92
50011;BME280;35899;50.352;19.390;2024-03-08T10:51:52;98200.70;;;13.54;65.88
50011;BME280;35899;50.352;19.390;2024-03-08T10:54:20;98198.98;;;13.89;63.68
50011;BME280;35899;50.352;19.390;2024-03-08T10:56:48;98195.13;;;14.17;62.88
50011;BME280;35899;50.352;19.390;2024-03-08T10:59:15;98195.48;;;14.58;62.05
50011;BME280;35899;50.352;19.390;2024-03-08T11:01:42;98193.07;;;14.75;59.98
50011;BME280;35899;50.352;19.390;2024-03-08T11:04:09;98186.03;;;15.09;59.60
50011;BME280;35899;50.352;19.390;2024-03-08T11:09:03;98186.27;;;15.80;57.04
50011;BME280;35899;50.352;19.390;2024-03-08T11:11:34;98187.41;;;15.93;54.65
50011;BME280;35899;50.352;19.390;2024-03-08T11:14:02;98182.90;;;16.05;53.95
50011;BME280;35899;50.352;19.390;2024-03-08T11:21:34;98181.15;;;16.94;51.31
50011;BME280;35899;50.352;19.390;2024-03-08T11:24:08;98177.58;;;17.13;50.62
50011;BME280;35899;50.352;19.390;2024-03-08T11:26:37;98170.97;;;17.32;49.22
50011;BME280;35899;50.352;19.390;2024-03-08T11:32:12;98167.71;;;17.83;48.56
50011;BME280;35899;50.352;19.390;2024-03-08T11:34:42;98166.88;;;18.12;48.29
50011;BME280;35899;50.352;19.390;2024-03-08T11:37:28;98162.20;;;18.40;47.87
50011;BME280;35899;50.352;19.390;2024-03-08T11:39:55;98160.28;;;18.85;47.33
50011;BME280;35899;50.352;19.390;2024-03-08T11:42:21;98157.26;;;19.16;46.31
50011;BME280;35899;50.352;19.390;2024-03-08T11:44:50;98150.05;;;19.39;45.36
50011;BME280;35899;50.352;19.390;2024-03-08T11:47:17;98148.52;;;19.52;44.43
50011;BME280;35899;50.352;19.390;2024-03-08T11:49:45;98145.83;;;19.68;44.26
50011;BME280;35899;50.352;19.390;2024-03-08T11:52:13;98147.95;;;19.90;43.46
50011;BME280;35899;50.352;19.390;2024-03-08T11:54:41;98146.55;;;20.11;42.76
50011;BME280;35899;50.352;19.390;2024-03-08T11:57:09;98145.35;;;20.28;42.55
50011;BME280;35899;50.352;19.390;2024-03-08T11:59:36;98141.20;;;20.73;42.97
50011;BME280;35899;50.352;19.390;2024-03-08T12:02:04;98136.42;;;21.09;41.65
50011;BME280;35899;50.352;19.390;2024-03-08T12:04:32;98137.27;;;21.33;41.25
50011;BME280;35899;50.352;19.390;2024-03-08T12:07:00;98135.14;;;21.62;41.51
50011;BME280;35899;50.352;19.390;2024-03-08T12:09:28;98139.07;;;21.97;40.83
50011;BME280;35899;50.352;19.390;2024-03-08T12:11:55;98138.33;;;22.31;40.92
50011;BME280;35899;50.352;19.390;2024-03-08T12:14:22;98134.77;;;22.63;39.80
50011;BME280;35899;50.352;19.390;2024-03-08T12:16:50;98135.50;;;22.73;38.89
50011;BME280;35899;50.352;19.390;2024-03-08T12:19:18;98137.11;;;22.89;38.72
50011;BME280;35899;50.352;19.390;2024-03-08T12:21:45;98131.81;;;23.07;38.63
50011;BME280;35899;50.352;19.390;2024-03-08T12:24:15;98130.23;;;23.38;38.34
50011;BME280;35899;50.352;19.390;2024-03-08T12:26:42;98124.99;;;23.60;38.11
50011;BME280;35899;50.352;19.390;2024-03-08T12:29:19;98123.54;;;23.81;37.39
50011;BME280;35899;50.352;19.390;2024-03-08T12:31:48;98124.44;;;24.18;37.72
50011;BME280;35899;50.352;19.390;2024-03-08T12:34:17;98119.60;;;24.59;37.08
50011;BME280;35899;50.352;19.390;2024-03-08T12:36:48;98115.39;;;24.77;36.62
50011;BME280;35899;50.352;19.390;2024-03-08T12:39:18;98114.06;;;24.86;36.10
50011;BME280;35899;50.352;19.390;2024-03-08T12:41:45;98111.41;;;25.01;35.85
50011;BME280;35899;50.352;19.390;2024-03-08T12:44:12;98111.45;;;25.27;35.59
50011;BME280;35899;50.352;19.390;2024-03-08T12:46:39;98105.17;;;25.51;35.13
50011;BME280;35899;50.352;19.390;2024-03-08T12:49:07;98105.55;;;25.66;34.84
50011;BME280;35899;50.352;19.390;2024-03-08T12:51:34;98102.11;;;25.66;34.31
50011;BME280;35899;50.352;19.390;2024-03-08T12:54:01;98102.34;;;25.69;33.57
50011;BME280;35899;50.352;19.390;2024-03-08T12:56:32;98102.20;;;25.69;33.30
50011;BME280;35899;50.352;19.390;2024-03-08T12:59:01;98098.55;;;25.82;33.11